createdAt,value
2019-01-12T00:00:59.549Z,5.80
2019-01-12T00:03:28.496Z,5.80
2019-01-12T00:05:57.538Z,5.80
2019-01-12T00:08:26.237Z,5.80
2019-01-12T00:10:55.051Z,5.80
2019-01-12T00:13:23.761Z,5.80
2019-01-12T00:15:52.482Z,5.80
2019-01-12T00:18:21.613Z,5.70
2019-01-12T00:20:50.336Z,5.70
2019-01-12T00:23:19.139Z,5.70
2019-01-12T00:25:47.900Z,5.80
2019-01-12T00:28:16.644Z,5.80
2019-01-12T00:30:45.596Z,5.80
2019-01-12T00:33:14.316Z,5.80
2019-01-12T00:35:43.293Z,5.80
2019-01-12T00:38:12.019Z,5.80
2019-01-12T00:40:40.781Z,5.80
2019-01-12T00:43:09.813Z,5.80
2019-01-12T00:45:38.521Z,5.80
2019-01-12T00:48:07.593Z,5.80
2019-01-12T00:50:36.306Z,5.80
2019-01-12T00:53:05.092Z,5.80
2019-01-12T00:55:37.113Z,5.80
2019-01-12T00:58:06.433Z,5.80
2019-01-12T01:00:35.537Z,5.80
2019-01-12T01:03:04.574Z,5.80
2019-01-12T01:05:33.628Z,5.80
2019-01-12T01:08:02.536Z,5.80
2019-01-12T01:10:31.332Z,5.80
2019-01-12T01:13:00.104Z,5.80
2019-01-12T01:15:28.815Z,5.80
2019-01-12T01:17:57.624Z,5.80
2019-01-12T01:20:26.661Z,5.80
2019-01-12T01:22:58.371Z,5.80
2019-01-12T01:25:27.330Z,5.80
2019-01-12T01:27:56.032Z,5.80
2019-01-12T01:30:25.084Z,5.80
2019-01-12T01:32:54.080Z,5.80
2019-01-12T01:35:23.057Z,5.80
2019-01-12T01:37:51.934Z,5.80
2019-01-12T01:40:20.718Z,5.80
2019-01-12T01:42:49.813Z,5.80
2019-01-12T01:45:18.865Z,5.70
2019-01-12T01:47:47.568Z,5.70
2019-01-12T01:50:16.513Z,5.70
2019-01-12T01:52:45.461Z,5.70
2019-01-12T01:55:14.325Z,5.70
2019-01-12T01:57:43.110Z,5.60
2019-01-12T02:00:14.384Z,5.60
2019-01-12T02:02:43.273Z,5.60
2019-01-12T02:05:12.360Z,5.60
2019-01-12T02:07:41.511Z,5.60
2019-01-12T02:10:14.117Z,5.60
2019-01-12T02:12:42.818Z,5.60
2019-01-12T02:15:12.145Z,5.50
2019-01-12T02:17:41.180Z,5.50
2019-01-12T02:20:10.185Z,5.50
2019-01-12T02:22:38.909Z,5.60
2019-01-12T02:25:07.936Z,5.60
2019-01-12T02:27:36.897Z,5.60
2019-01-12T02:30:09.805Z,5.60
2019-01-12T02:32:38.511Z,5.60
2019-01-12T02:35:07.716Z,5.60
2019-01-12T02:37:36.482Z,5.60
2019-01-12T02:40:06.166Z,5.50
2019-01-12T02:42:34.868Z,5.50
2019-01-12T02:45:04.734Z,5.50
2019-01-12T02:47:33.462Z,5.60
2019-01-12T02:50:02.176Z,5.50
2019-01-12T02:52:30.880Z,5.50
2019-01-12T02:54:59.601Z,5.50
2019-01-12T02:57:28.392Z,5.50
2019-01-12T02:59:57.101Z,5.50
2019-01-12T03:02:26.064Z,5.50
2019-01-12T03:04:55.254Z,5.50
2019-01-12T03:07:24.473Z,5.50
2019-01-12T03:09:53.486Z,5.50
2019-01-12T03:12:22.214Z,5.50
2019-01-12T03:14:50.950Z,5.50
2019-01-12T03:17:20.118Z,5.50
2019-01-12T03:19:49.329Z,5.50
2019-01-12T03:22:18.021Z,5.50
2019-01-12T03:24:46.996Z,5.40
2019-01-12T03:27:16.181Z,5.40
2019-01-12T03:29:45.360Z,5.40
2019-01-12T03:32:14.143Z,5.40
2019-01-12T03:34:42.868Z,5.40
2019-01-12T03:37:11.825Z,5.40
2019-01-12T03:39:41.007Z,5.40
2019-01-12T03:42:09.728Z,5.40
2019-01-12T03:44:38.710Z,5.40
2019-01-12T03:47:07.654Z,5.40
2019-01-12T03:49:36.596Z,5.40
2019-01-12T03:52:05.550Z,5.40
2019-01-12T03:54:34.510Z,5.40
2019-01-12T03:57:03.273Z,5.40
2019-01-12T03:59:32.240Z,5.40
2019-01-12T04:02:01.428Z,5.30
2019-01-12T04:04:30.140Z,5.30
2019-01-12T04:06:58.862Z,5.30
2019-01-12T04:09:27.803Z,5.30
2019-01-12T04:11:56.762Z,5.40
2019-01-12T04:14:25.938Z,5.30
2019-01-12T04:16:54.630Z,5.30
2019-01-12T04:19:23.594Z,5.30
2019-01-12T04:21:52.804Z,5.30
2019-01-12T04:24:21.758Z,5.30
2019-01-12T04:26:50.721Z,5.30
2019-01-12T04:29:19.433Z,5.30
2019-01-12T04:31:48.136Z,5.30
2019-01-12T04:34:17.601Z,5.30
2019-01-12T04:36:46.361Z,5.30
2019-01-12T04:39:15.065Z,5.30
2019-01-12T04:41:43.800Z,5.30
2019-01-12T04:44:12.586Z,5.30
2019-01-12T04:46:41.781Z,5.30
2019-01-12T04:49:11.068Z,5.30
2019-01-12T04:51:40.354Z,5.30
2019-01-12T04:54:09.395Z,5.30
2019-01-12T04:56:38.359Z,5.30
2019-01-12T04:59:07.046Z,5.30
2019-01-12T05:01:35.744Z,5.30
2019-01-12T05:04:04.810Z,5.30
2019-01-12T05:06:33.783Z,5.30
2019-01-12T05:09:02.801Z,5.20
2019-01-12T05:11:31.514Z,5.20
2019-01-12T05:14:00.929Z,5.30
2019-01-12T05:16:29.636Z,5.30
2019-01-12T05:18:58.878Z,5.30
2019-01-12T05:21:27.602Z,5.30
2019-01-12T05:23:56.303Z,5.30
2019-01-12T05:26:25.487Z,5.30
2019-01-12T05:28:54.432Z,5.30
2019-01-12T05:31:23.146Z,5.30
2019-01-12T05:33:52.139Z,5.30
2019-01-12T05:36:21.078Z,5.30
2019-01-12T05:38:50.279Z,5.30
2019-01-12T05:41:19.047Z,5.30
2019-01-12T05:43:49.489Z,5.30
2019-01-12T05:46:18.208Z,5.30
2019-01-12T05:48:48.142Z,5.30
2019-01-12T05:51:16.857Z,5.20
2019-01-12T05:53:45.581Z,5.20
2019-01-12T05:56:34.018Z,5.30
2019-01-12T05:59:03.340Z,5.30
2019-01-12T06:01:32.061Z,5.30
2019-01-12T06:04:01.125Z,5.30
2019-01-12T06:06:30.109Z,5.30
2019-01-12T06:08:59.051Z,5.30
2019-01-12T06:11:28.485Z,5.30
2019-01-12T06:13:57.430Z,5.30
2019-01-12T06:16:26.493Z,5.20
2019-01-12T06:18:55.437Z,5.20
2019-01-12T06:21:24.145Z,5.20
2019-01-12T06:23:53.125Z,5.20
2019-01-12T06:26:22.404Z,5.10
2019-01-12T06:28:51.107Z,5.20
2019-01-12T06:31:20.385Z,5.10
2019-01-12T06:33:49.313Z,5.10
2019-01-12T06:36:18.284Z,5.10
2019-01-12T06:38:47.224Z,5.10
2019-01-12T06:41:16.266Z,5.10
2019-01-12T06:43:45.473Z,5.10
2019-01-12T06:46:14.440Z,5.10
2019-01-12T06:48:43.401Z,5.10
2019-01-12T06:51:12.170Z,5.10
2019-01-12T06:53:42.084Z,5.10
2019-01-12T06:56:11.092Z,5.10
2019-01-12T06:58:39.956Z,5.10
2019-01-12T07:01:08.936Z,5.00
2019-01-12T07:03:37.625Z,5.00
2019-01-12T07:06:06.577Z,5.00
2019-01-12T07:08:35.564Z,5.00
2019-01-12T07:11:04.361Z,5.00
2019-01-12T07:13:33.064Z,5.00
2019-01-12T07:16:01.798Z,5.00
2019-01-12T07:18:30.735Z,5.10
2019-01-12T07:20:59.697Z,5.10
2019-01-12T07:23:28.658Z,5.10
2019-01-12T07:25:57.623Z,5.00
2019-01-12T07:28:26.581Z,5.00
2019-01-12T07:30:55.784Z,5.00
2019-01-12T07:33:24.762Z,5.00
2019-01-12T07:35:53.761Z,5.00
2019-01-12T07:38:22.509Z,5.00
2019-01-12T07:40:51.450Z,5.00
2019-01-12T07:43:20.177Z,5.00
2019-01-12T07:45:49.141Z,5.00
2019-01-12T07:48:17.834Z,5.00
2019-01-12T07:50:46.805Z,5.00
2019-01-12T07:53:15.525Z,4.90
2019-01-12T07:55:44.246Z,4.90
2019-01-12T07:58:13.060Z,4.90
2019-01-12T08:00:42.244Z,4.90
2019-01-12T08:03:11.184Z,4.90
2019-01-12T08:05:39.900Z,4.80
2019-01-12T08:08:08.621Z,4.80
2019-01-12T08:10:37.317Z,4.80
2019-01-12T08:13:06.289Z,4.80
2019-01-12T08:15:34.990Z,4.80
2019-01-12T08:18:03.975Z,4.80
2019-01-12T08:20:32.670Z,4.80
2019-01-12T08:23:01.649Z,4.80
2019-01-12T08:25:30.858Z,4.80
2019-01-12T08:28:00.304Z,4.80
2019-01-12T08:30:29.483Z,4.80
2019-01-12T08:32:58.317Z,4.80
2019-01-12T08:35:27.513Z,4.80
2019-01-12T08:37:57.728Z,4.80
2019-01-12T08:40:26.709Z,4.80
2019-01-12T08:42:55.673Z,4.70
2019-01-12T08:45:24.613Z,4.70
2019-01-12T08:47:53.950Z,4.70
2019-01-12T08:50:23.304Z,4.70
2019-01-12T08:52:52.344Z,4.70
2019-01-12T08:55:21.133Z,4.70
2019-01-12T08:57:50.585Z,4.70
2019-01-12T09:00:21.434Z,4.80
2019-01-12T09:02:50.530Z,4.80
2019-01-12T10:10:58.722Z,4.20
2019-01-12T10:13:27.922Z,4.30
2019-01-12T10:15:56.630Z,4.40
2019-01-12T10:21:48.794Z,4.60
2019-01-12T10:24:18.137Z,4.60
2019-01-12T10:26:47.082Z,4.70
2019-01-12T10:29:16.301Z,4.70
2019-01-12T10:31:45.301Z,4.80
2019-01-12T10:34:14.460Z,4.80
2019-01-12T10:36:43.778Z,4.80
2019-01-12T10:39:17.883Z,4.80
2019-01-12T10:41:43.621Z,4.90
2019-01-12T10:44:12.720Z,4.90
2019-01-12T10:46:42.226Z,4.80
2019-01-12T10:49:10.933Z,4.80
2019-01-12T10:51:39.957Z,4.80
2019-01-12T10:54:08.852Z,4.80
2019-01-12T10:56:38.124Z,4.70
2019-01-12T10:59:07.142Z,4.70
2019-01-12T11:01:35.880Z,4.80
2019-01-12T11:04:05.494Z,4.70
2019-01-12T11:06:34.217Z,4.70
2019-01-12T11:09:04.389Z,4.70
2019-01-12T11:11:33.550Z,4.70
2019-01-12T11:14:02.548Z,4.70
2019-01-12T11:16:31.565Z,4.70
2019-01-12T11:19:00.581Z,4.70
2019-01-12T11:21:29.581Z,4.70
2019-01-12T11:23:58.635Z,4.70
2019-01-12T11:26:27.846Z,4.80
2019-01-12T11:28:56.593Z,4.80
2019-01-12T11:31:25.337Z,4.80
2019-01-12T11:33:54.193Z,4.80
2019-01-12T11:36:43.847Z,4.80
2019-01-12T11:39:12.822Z,4.80
2019-01-12T11:41:41.761Z,4.80
2019-01-12T11:44:16.057Z,4.80
2019-01-12T11:46:44.765Z,4.80
2019-01-12T11:49:18.886Z,4.90
2019-01-12T11:51:47.873Z,4.90
2019-01-12T11:54:18.302Z,4.90
2019-01-12T11:56:47.470Z,4.90
2019-01-12T11:59:16.489Z,4.90
2019-01-12T12:01:45.680Z,4.90
2019-01-12T12:04:14.991Z,4.90
2019-01-12T12:06:43.720Z,4.90
2019-01-12T12:09:12.425Z,4.90
2019-01-12T12:11:41.364Z,4.90
2019-01-12T12:14:10.349Z,4.90
2019-01-12T12:16:39.072Z,4.90
2019-01-12T12:19:08.122Z,4.90
2019-01-12T12:21:37.117Z,4.90
2019-01-12T12:24:05.853Z,4.90
2019-01-12T12:26:34.862Z,4.90
2019-01-12T12:29:04.677Z,4.90
2019-01-12T12:31:33.395Z,5.00
2019-01-12T12:34:02.565Z,4.90
2019-01-12T12:36:31.326Z,5.00
2019-01-12T12:39:00.491Z,5.00
2019-01-12T12:41:29.193Z,5.00
2019-01-12T12:43:58.282Z,5.00
2019-01-12T12:46:27.390Z,5.00
2019-01-12T12:48:56.419Z,5.00
2019-01-12T12:51:25.444Z,5.00
2019-01-12T12:53:54.407Z,5.00
2019-01-12T12:56:23.509Z,5.00
2019-01-12T12:58:52.245Z,5.00
2019-01-12T13:01:21.098Z,5.00
2019-01-12T13:03:50.068Z,5.00
2019-01-12T13:06:19.177Z,5.00
2019-01-12T13:08:48.719Z,5.00
2019-01-12T13:11:17.810Z,5.00
2019-01-12T13:13:46.857Z,5.00
2019-01-12T13:16:15.598Z,5.00
2019-01-12T13:18:44.537Z,5.00
2019-01-12T13:21:13.395Z,5.00
2019-01-12T13:23:42.404Z,5.00
2019-01-12T13:26:11.112Z,5.00
2019-01-12T13:28:40.053Z,5.00
2019-01-12T13:31:09.663Z,5.00
2019-01-12T13:33:38.365Z,5.00
2019-01-12T13:36:08.665Z,5.10
2019-01-12T13:38:37.685Z,5.00
2019-01-12T13:41:06.413Z,5.00
2019-01-12T13:43:54.368Z,5.00
2019-01-12T13:46:23.386Z,5.00
2019-01-12T13:48:52.102Z,5.10
2019-01-12T13:51:21.229Z,5.10
2019-01-12T13:53:50.265Z,5.10
2019-01-12T13:56:19.272Z,5.10
2019-01-12T13:58:48.585Z,5.10
2019-01-12T14:01:17.289Z,5.10
2019-01-12T14:03:46.250Z,5.10
2019-01-12T14:06:15.328Z,5.10
2019-01-12T14:08:44.023Z,5.10
2019-01-12T14:11:12.736Z,5.10
2019-01-12T14:13:42.771Z,5.10
2019-01-12T14:16:11.534Z,5.10
2019-01-12T14:18:40.981Z,5.10
2019-01-12T14:21:09.773Z,5.10
2019-01-12T14:23:38.805Z,5.10
2019-01-12T14:26:07.660Z,5.10
2019-01-12T14:28:36.733Z,5.10
2019-01-12T14:31:05.512Z,5.10
2019-01-12T14:33:34.576Z,5.10
2019-01-12T14:36:03.558Z,5.10
2019-01-12T14:38:32.256Z,5.10
2019-01-12T14:41:01.205Z,5.20
2019-01-12T14:43:30.180Z,5.20
2019-01-12T14:45:58.889Z,5.20
2019-01-12T14:48:27.842Z,5.20
2019-01-12T14:50:57.985Z,5.20
2019-01-12T14:53:29.758Z,5.20
2019-01-12T14:55:58.470Z,5.20
2019-01-12T14:58:27.209Z,5.30
2019-01-12T15:00:55.932Z,5.30
2019-01-12T15:03:24.740Z,5.30
2019-01-12T15:05:54.077Z,5.30
2019-01-12T15:08:22.769Z,5.30
2019-01-12T15:10:51.825Z,5.30
2019-01-12T15:13:20.574Z,5.30
2019-01-12T15:15:49.542Z,5.30
2019-01-12T15:18:18.275Z,5.30
2019-01-12T15:20:47.366Z,5.40
2019-01-12T15:23:16.130Z,5.30
2019-01-12T15:25:45.134Z,5.40
2019-01-12T15:28:14.129Z,5.40
2019-01-12T15:30:43.070Z,5.40
2019-01-12T15:33:12.763Z,5.40
2019-01-12T15:35:43.637Z,5.40
2019-01-12T15:38:12.351Z,5.40
2019-01-12T15:40:41.054Z,5.40
2019-01-12T15:43:10.129Z,5.50
2019-01-12T15:45:38.821Z,5.50
2019-01-12T15:48:07.949Z,5.40
2019-01-12T15:50:36.944Z,5.50
2019-01-12T15:53:05.899Z,5.40
2019-01-12T15:55:34.668Z,5.50
2019-01-12T15:58:03.957Z,5.50
2019-01-12T16:00:34.037Z,5.50
2019-01-12T16:03:02.995Z,5.50
2019-01-12T16:05:31.847Z,5.50
2019-01-12T16:08:01.032Z,5.60
2019-01-12T16:10:29.844Z,5.60
2019-01-12T16:12:58.798Z,5.60
2019-01-12T16:15:28.185Z,5.60
2019-01-12T16:17:57.657Z,5.60
2019-01-12T16:20:29.420Z,5.60
2019-01-12T16:22:58.665Z,5.60
2019-01-12T16:25:27.495Z,5.60
2019-01-12T16:27:56.277Z,5.60
2019-01-12T16:30:25.068Z,5.60
2019-01-12T16:33:13.044Z,5.70
2019-01-12T16:35:41.998Z,5.70
2019-01-12T16:38:10.718Z,5.70
2019-01-12T16:40:39.777Z,5.70
2019-01-12T16:43:08.792Z,5.80
2019-01-12T16:45:37.745Z,5.80
2019-01-12T16:48:07.261Z,5.80
2019-01-12T16:50:36.029Z,5.80
2019-01-12T16:53:04.897Z,5.80
2019-01-12T16:55:34.713Z,5.80
2019-01-12T16:58:04.370Z,5.80
2019-01-12T17:00:33.320Z,5.90
2019-01-12T17:03:02.341Z,5.90
2019-01-12T17:05:31.113Z,5.80
2019-01-12T17:08:00.028Z,5.80
2019-01-12T17:10:28.785Z,5.80
2019-01-12T17:12:57.578Z,5.90
2019-01-12T17:15:26.477Z,5.90
2019-01-12T17:17:55.586Z,5.90
2019-01-12T17:20:26.485Z,5.90
2019-01-12T17:22:57.703Z,6.00
2019-01-12T17:25:26.895Z,6.00
2019-01-12T17:27:55.796Z,6.00
2019-01-12T17:30:24.869Z,6.00
2019-01-12T17:32:53.577Z,6.00
2019-01-12T17:35:22.735Z,6.00
2019-01-12T17:37:51.770Z,6.00
2019-01-12T17:40:20.918Z,6.00
2019-01-12T17:42:49.951Z,6.00
2019-01-12T17:45:20.776Z,6.00
2019-01-12T17:47:49.922Z,6.00
2019-01-12T17:50:20.333Z,6.10
2019-01-12T17:52:49.346Z,6.10
2019-01-12T17:55:20.012Z,6.10
2019-01-12T17:57:49.094Z,6.10
2019-01-12T18:00:41.965Z,6.10
2019-01-12T18:03:10.926Z,6.10
2019-01-12T18:05:43.173Z,6.10
2019-01-12T18:08:12.578Z,6.10
2019-01-12T18:10:41.694Z,6.10
2019-01-12T18:13:10.609Z,6.10
2019-01-12T18:15:39.573Z,6.10
2019-01-12T18:18:08.777Z,6.20
2019-01-12T18:20:38.044Z,6.20
2019-01-12T18:23:07.289Z,6.10
2019-01-12T18:25:36.157Z,6.10
2019-01-12T18:28:05.319Z,6.20
2019-01-12T18:30:34.201Z,6.20
2019-01-12T18:33:03.449Z,6.10
2019-01-12T18:35:32.525Z,6.10
2019-01-12T18:38:01.542Z,6.10
2019-01-12T18:40:31.539Z,6.10
2019-01-12T18:43:01.073Z,6.10
2019-01-12T18:45:30.133Z,6.10
2019-01-12T18:47:58.951Z,6.10
2019-01-12T18:50:29.110Z,6.10
2019-01-12T18:52:58.032Z,6.00
2019-01-12T18:55:27.443Z,6.10
2019-01-12T18:57:58.601Z,6.10
2019-01-12T19:00:29.550Z,6.10
2019-01-12T19:02:58.766Z,6.10
2019-01-12T19:05:27.553Z,6.10
2019-01-12T19:07:56.412Z,6.10
2019-01-12T19:10:25.502Z,6.00
2019-01-12T19:12:55.366Z,6.00
2019-01-12T19:15:26.334Z,6.10
2019-01-12T19:17:55.646Z,6.00
2019-01-12T19:20:24.545Z,6.00
2019-01-12T19:22:54.198Z,6.00
2019-01-12T19:25:23.125Z,6.10
2019-01-12T19:27:52.151Z,6.10
2019-01-12T19:30:22.270Z,6.10
2019-01-12T19:32:51.671Z,6.10
2019-01-12T19:35:20.475Z,6.10
2019-01-12T19:37:49.697Z,6.10
2019-01-12T19:40:20.905Z,6.10
2019-01-12T19:42:50.297Z,6.10
2019-01-12T19:45:19.677Z,6.10
2019-01-12T19:47:49.033Z,6.10
2019-01-12T19:50:23.176Z,6.10
2019-01-12T19:52:52.186Z,6.00
2019-01-12T19:55:21.034Z,6.00
2019-01-12T19:57:50.113Z,6.00
2019-01-12T20:00:21.504Z,5.90
2019-01-12T20:02:50.292Z,5.90
2019-01-12T20:05:19.445Z,5.90
2019-01-12T20:07:48.210Z,5.90
2019-01-12T20:10:17.725Z,5.80
2019-01-12T20:12:46.668Z,5.80
2019-01-12T20:15:18.557Z,5.90
2019-01-12T20:17:47.810Z,5.90
2019-01-12T20:20:16.900Z,5.90
2019-01-12T20:22:45.763Z,5.80
2019-01-12T20:25:17.963Z,5.80
2019-01-12T20:27:47.036Z,5.90
2019-01-12T20:30:40.066Z,5.90
2019-01-12T20:33:25.571Z,5.80
2019-01-12T20:36:24.386Z,5.90
2019-01-12T20:39:19.224Z,5.80
2019-01-12T20:42:07.808Z,5.80
2019-01-12T20:45:12.460Z,5.80
2019-01-12T20:48:34.818Z,5.80
2019-01-12T20:51:40.718Z,5.70
2019-01-12T20:54:50.609Z,5.70
2019-01-12T20:57:37.632Z,5.70
2019-01-12T21:00:46.811Z,5.70
2019-01-12T21:03:45.070Z,5.60
2019-01-12T21:06:31.924Z,5.60
2019-01-12T21:09:14.808Z,5.60
2019-01-12T21:12:27.114Z,5.60
2019-01-12T21:15:27.030Z,5.60
2019-01-12T21:17:56.470Z,5.60
2019-01-12T21:20:25.427Z,5.50
2019-01-12T21:22:56.240Z,5.50
2019-01-12T21:25:25.257Z,5.50
2019-01-12T21:27:54.306Z,5.40
2019-01-12T21:30:23.029Z,5.40
2019-01-12T21:32:51.996Z,5.40
2019-01-12T21:35:20.923Z,5.40
2019-01-12T21:37:50.191Z,5.40
2019-01-12T21:40:19.883Z,5.40
2019-01-12T21:42:48.821Z,5.40
2019-01-12T21:45:17.777Z,5.40
2019-01-12T21:47:47.499Z,5.40
2019-01-12T21:50:16.685Z,5.30
2019-01-12T21:52:46.000Z,5.30
2019-01-12T21:55:14.962Z,5.30
2019-01-12T21:57:44.064Z,5.30
2019-01-12T22:00:15.702Z,5.20
2019-01-12T22:02:45.331Z,5.20
2019-01-12T22:05:33.325Z,5.30
2019-01-12T22:08:02.613Z,5.30
2019-01-12T22:10:31.693Z,5.20
2019-01-12T22:13:01.320Z,5.20
2019-01-12T22:15:30.378Z,5.10
2019-01-12T22:17:59.100Z,5.20
2019-01-12T22:20:28.369Z,5.20
2019-01-12T22:22:57.090Z,5.30
2019-01-12T22:25:26.357Z,5.30
2019-01-12T22:27:55.114Z,5.30
2019-01-12T22:30:24.124Z,5.30
2019-01-12T22:32:52.925Z,5.30
2019-01-12T22:35:21.952Z,5.30
2019-01-12T22:37:55.461Z,5.40
2019-01-12T22:40:24.889Z,5.40
2019-01-12T22:42:54.083Z,5.40
2019-01-12T22:45:23.361Z,5.40
2019-01-12T22:47:52.915Z,5.50
2019-01-12T22:50:22.125Z,5.50
2019-01-12T22:52:51.185Z,5.50
2019-01-12T22:55:20.281Z,5.50
2019-01-12T22:57:49.180Z,5.60
2019-01-12T23:00:55.353Z,5.60
2019-01-12T23:03:24.489Z,5.60
2019-01-12T23:05:53.585Z,5.50
2019-01-12T23:08:22.673Z,5.50
2019-01-12T23:10:52.004Z,5.50
2019-01-12T23:13:21.514Z,5.50
2019-01-12T23:15:51.096Z,5.50
2019-01-12T23:18:20.835Z,5.50
2019-01-12T23:20:49.663Z,5.50
2019-01-12T23:23:18.641Z,5.50
2019-01-12T23:25:48.071Z,5.50
2019-01-12T23:28:17.157Z,5.50
2019-01-12T23:30:46.266Z,5.50
2019-01-12T23:33:15.758Z,5.50
2019-01-12T23:35:44.818Z,5.60
2019-01-12T23:38:14.171Z,5.60
2019-01-12T23:40:43.004Z,5.60
2019-01-12T23:43:12.124Z,5.60
2019-01-12T23:45:41.715Z,5.60
2019-01-12T23:48:10.689Z,5.60
2019-01-12T23:50:39.694Z,5.60
2019-01-12T23:53:08.986Z,5.60
2019-01-12T23:55:38.249Z,5.60
2019-01-12T23:58:08.771Z,5.60
